sensor_id;sensor_type;location;lat;lon;timestamp;P1;durP1;ratioP1;P2;durP2;ratioP2
6133;SDS011;3098;42.678;23.364;2023-07-28T00:00:09;6.82;;;4.65;;
6133;SDS011;3098;42.678;23.364;2023-07-28T00:02:36;7.10;;;4.97;;
6133;SDS011;3098;42.678;23.364;2023-07-28T00:05:03;6.60;;;5.00;;
6133;SDS011;3098;42.678;23.364;2023-07-28T00:07:31;7.28;;;5.13;;
6133;SDS011;3098;42.678;23.364;2023-07-28T00:10:00;7.15;;;5.43;;
6133;SDS011;3098;42.678;23.364;2023-07-28T00:12:27;8.27;;;4.80;;
6133;SDS011;3098;42.678;23.364;2023-07-28T00:14:54;8.40;;;5.13;;
6133;SDS011;3098;42.678;23.364;2023-07-28T00:17:23;6.20;;;4.75;;
6133;SDS011;3098;42.678;23.364;2023-07-28T00:19:50;6.65;;;5.18;;
6133;SDS011;3098;42.678;23.364;2023-07-28T00:22:17;8.48;;;4.68;;
6133;SDS011;3098;42.678;23.364;2023-07-28T00:24:44;6.85;;;5.47;;
6133;SDS011;3098;42.678;23.364;2023-07-28T00:27:11;10.63;;;4.95;;
6133;SDS011;3098;42.678;23.364;2023-07-28T00:29:39;6.07;;;4.97;;
6133;SDS011;3098;42.678;23.364;2023-07-28T00:32:07;7.13;;;4.63;;
6133;SDS011;3098;42.678;23.364;2023-07-28T00:34:35;7.40;;;5.18;;
6133;SDS011;3098;42.678;23.364;2023-07-28T00:37:02;8.57;;;5.57;;
6133;SDS011;3098;42.678;23.364;2023-07-28T00:39:30;9.20;;;5.03;;
6133;SDS011;3098;42.678;23.364;2023-07-28T00:41:56;9.07;;;5.13;;
6133;SDS011;3098;42.678;23.364;2023-07-28T00:44:24;7.50;;;5.05;;
6133;SDS011;3098;42.678;23.364;2023-07-28T00:46:50;6.32;;;5.07;;
6133;SDS011;3098;42.678;23.364;2023-07-28T00:49:17;7.57;;;5.50;;
6133;SDS011;3098;42.678;23.364;2023-07-28T00:51:46;8.25;;;5.53;;
6133;SDS011;3098;42.678;23.364;2023-07-28T00:54:13;11.02;;;5.30;;
6133;SDS011;3098;42.678;23.364;2023-07-28T00:56:40;10.25;;;5.22;;
6133;SDS011;3098;42.678;23.364;2023-07-28T00:59:08;6.82;;;4.95;;
6133;SDS011;3098;42.678;23.364;2023-07-28T01:01:35;12.35;;;5.75;;
6133;SDS011;3098;42.678;23.364;2023-07-28T01:04:02;6.50;;;5.22;;
6133;SDS011;3098;42.678;23.364;2023-07-28T01:06:30;7.75;;;5.70;;
6133;SDS011;3098;42.678;23.364;2023-07-28T01:09:06;7.53;;;5.85;;
6133;SDS011;3098;42.678;23.364;2023-07-28T01:11:38;10.82;;;5.10;;
6133;SDS011;3098;42.678;23.364;2023-07-28T01:14:18;10.40;;;6.00;;
6133;SDS011;3098;42.678;23.364;2023-07-28T01:16:45;6.35;;;5.32;;
6133;SDS011;3098;42.678;23.364;2023-07-28T01:19:12;8.82;;;6.13;;
6133;SDS011;3098;42.678;23.364;2023-07-28T01:21:43;7.20;;;5.43;;
6133;SDS011;3098;42.678;23.364;2023-07-28T01:24:21;7.75;;;5.72;;
6133;SDS011;3098;42.678;23.364;2023-07-28T01:26:55;9.35;;;5.78;;
6133;SDS011;3098;42.678;23.364;2023-07-28T01:29:22;11.30;;;5.88;;
6133;SDS011;3098;42.678;23.364;2023-07-28T01:31:51;8.07;;;5.40;;
6133;SDS011;3098;42.678;23.364;2023-07-28T01:34:18;9.55;;;5.50;;
6133;SDS011;3098;42.678;23.364;2023-07-28T01:36:45;12.38;;;7.07;;
6133;SDS011;3098;42.678;23.364;2023-07-28T01:39:12;10.30;;;5.25;;
6133;SDS011;3098;42.678;23.364;2023-07-28T01:41:39;7.60;;;5.55;;
6133;SDS011;3098;42.678;23.364;2023-07-28T01:44:10;6.82;;;5.15;;
6133;SDS011;3098;42.678;23.364;2023-07-28T01:46:36;16.02;;;5.90;;
6133;SDS011;3098;42.678;23.364;2023-07-28T01:49:05;10.73;;;5.57;;
6133;SDS011;3098;42.678;23.364;2023-07-28T01:51:32;5.30;;;4.07;;
6133;SDS011;3098;42.678;23.364;2023-07-28T01:53:59;7.60;;;4.05;;
6133;SDS011;3098;42.678;23.364;2023-07-28T01:56:26;5.93;;;4.25;;
6133;SDS011;3098;42.678;23.364;2023-07-28T01:58:53;11.20;;;3.63;;
6133;SDS011;3098;42.678;23.364;2023-07-28T02:01:21;5.38;;;3.88;;
6133;SDS011;3098;42.678;23.364;2023-07-28T02:03:48;5.50;;;4.05;;
6133;SDS011;3098;42.678;23.364;2023-07-28T02:06:16;5.07;;;4.03;;
6133;SDS011;3098;42.678;23.364;2023-07-28T02:08:42;6.57;;;4.13;;
6133;SDS011;3098;42.678;23.364;2023-07-28T02:11:10;4.93;;;4.25;;
6133;SDS011;3098;42.678;23.364;2023-07-28T02:13:37;7.45;;;4.13;;
6133;SDS011;3098;42.678;23.364;2023-07-28T02:16:04;5.65;;;3.88;;
6133;SDS011;3098;42.678;23.364;2023-07-28T02:18:33;5.70;;;4.50;;
6133;SDS011;3098;42.678;23.364;2023-07-28T02:20:59;8.63;;;4.40;;
6133;SDS011;3098;42.678;23.364;2023-07-28T02:23:26;7.07;;;4.22;;
6133;SDS011;3098;42.678;23.364;2023-07-28T02:25:53;6.65;;;4.78;;
6133;SDS011;3098;42.678;23.364;2023-07-28T02:28:21;4.55;;;3.70;;
6133;SDS011;3098;42.678;23.364;2023-07-28T02:30:48;4.30;;;3.90;;
6133;SDS011;3098;42.678;23.364;2023-07-28T02:33:15;5.13;;;3.97;;
6133;SDS011;3098;42.678;23.364;2023-07-28T02:35:43;9.73;;;4.13;;
6133;SDS011;3098;42.678;23.364;2023-07-28T02:38:11;8.38;;;4.20;;
6133;SDS011;3098;42.678;23.364;2023-07-28T02:40:38;6.90;;;4.05;;
6133;SDS011;3098;42.678;23.364;2023-07-28T02:43:05;7.35;;;4.32;;
6133;SDS011;3098;42.678;23.364;2023-07-28T02:45:32;5.75;;;4.40;;
6133;SDS011;3098;42.678;23.364;2023-07-28T02:47:59;6.03;;;4.72;;
6133;SDS011;3098;42.678;23.364;2023-07-28T02:50:26;4.60;;;3.88;;
6133;SDS011;3098;42.678;23.364;2023-07-28T02:52:54;6.13;;;4.07;;
6133;SDS011;3098;42.678;23.364;2023-07-28T02:55:21;5.30;;;4.35;;
6133;SDS011;3098;42.678;23.364;2023-07-28T02:57:48;5.07;;;3.75;;
6133;SDS011;3098;42.678;23.364;2023-07-28T03:00:15;5.90;;;4.15;;
6133;SDS011;3098;42.678;23.364;2023-07-28T03:02:42;6.80;;;4.25;;
6133;SDS011;3098;42.678;23.364;2023-07-28T03:05:10;6.70;;;4.65;;
6133;SDS011;3098;42.678;23.364;2023-07-28T03:07:37;9.23;;;4.50;;
6133;SDS011;3098;42.678;23.364;2023-07-28T03:10:05;5.50;;;4.32;;
6133;SDS011;3098;42.678;23.364;2023-07-28T03:12:32;7.00;;;4.47;;
6133;SDS011;3098;42.678;23.364;2023-07-28T03:14:59;6.80;;;4.47;;
6133;SDS011;3098;42.678;23.364;2023-07-28T03:17:26;9.00;;;4.07;;
6133;SDS011;3098;42.678;23.364;2023-07-28T03:19:53;6.05;;;4.43;;
6133;SDS011;3098;42.678;23.364;2023-07-28T03:22:20;6.90;;;4.88;;
6133;SDS011;3098;42.678;23.364;2023-07-28T03:24:47;8.40;;;5.07;;
6133;SDS011;3098;42.678;23.364;2023-07-28T03:27:16;11.85;;;6.40;;
6133;SDS011;3098;42.678;23.364;2023-07-28T03:29:43;7.47;;;5.10;;
6133;SDS011;3098;42.678;23.364;2023-07-28T03:32:10;8.30;;;5.20;;
6133;SDS011;3098;42.678;23.364;2023-07-28T03:34:37;7.20;;;4.40;;
6133;SDS011;3098;42.678;23.364;2023-07-28T03:37:04;12.18;;;6.40;;
6133;SDS011;3098;42.678;23.364;2023-07-28T03:39:31;6.10;;;4.45;;
6133;SDS011;3098;42.678;23.364;2023-07-28T03:41:58;5.53;;;4.03;;
6133;SDS011;3098;42.678;23.364;2023-07-28T03:44:26;9.07;;;4.50;;
6133;SDS011;3098;42.678;23.364;2023-07-28T03:46:53;5.70;;;4.03;;
6133;SDS011;3098;42.678;23.364;2023-07-28T03:49:21;4.53;;;3.83;;
6133;SDS011;3098;42.678;23.364;2023-07-28T03:51:48;5.63;;;3.88;;
6133;SDS011;3098;42.678;23.364;2023-07-28T03:54:15;7.95;;;3.83;;
6133;SDS011;3098;42.678;23.364;2023-07-28T03:56:42;6.30;;;3.80;;
6133;SDS011;3098;42.678;23.364;2023-07-28T03:59:09;7.05;;;4.35;;
6133;SDS011;3098;42.678;23.364;2023-07-28T04:01:38;7.88;;;4.22;;
6133;SDS011;3098;42.678;23.364;2023-07-28T04:04:05;8.02;;;4.57;;
6133;SDS011;3098;42.678;23.364;2023-07-28T04:06:39;7.72;;;4.28;;
6133;SDS011;3098;42.678;23.364;2023-07-28T04:09:07;8.32;;;4.95;;
6133;SDS011;3098;42.678;23.364;2023-07-28T04:11:34;8.15;;;4.50;;
6133;SDS011;3098;42.678;23.364;2023-07-28T04:14:02;11.38;;;5.25;;
6133;SDS011;3098;42.678;23.364;2023-07-28T04:16:28;8.20;;;4.60;;
6133;SDS011;3098;42.678;23.364;2023-07-28T04:18:57;9.75;;;5.05;;
6133;SDS011;3098;42.678;23.364;2023-07-28T04:21:25;12.15;;;5.22;;
6133;SDS011;3098;42.678;23.364;2023-07-28T04:23:52;11.10;;;5.53;;
6133;SDS011;3098;42.678;23.364;2023-07-28T04:26:19;13.73;;;6.25;;
6133;SDS011;3098;42.678;23.364;2023-07-28T04:28:46;10.43;;;6.70;;
6133;SDS011;3098;42.678;23.364;2023-07-28T04:31:13;10.82;;;5.70;;
6133;SDS011;3098;42.678;23.364;2023-07-28T04:33:41;9.50;;;5.80;;
6133;SDS011;3098;42.678;23.364;2023-07-28T04:36:09;7.80;;;5.47;;
6133;SDS011;3098;42.678;23.364;2023-07-28T04:38:37;8.40;;;5.25;;
6133;SDS011;3098;42.678;23.364;2023-07-28T04:41:03;9.82;;;5.82;;
6133;SDS011;3098;42.678;23.364;2023-07-28T04:43:30;13.07;;;6.20;;
6133;SDS011;3098;42.678;23.364;2023-07-28T04:45:57;10.90;;;6.43;;
6133;SDS011;3098;42.678;23.364;2023-07-28T04:48:24;17.17;;;7.57;;
6133;SDS011;3098;42.678;23.364;2023-07-28T04:50:51;12.10;;;7.55;;
6133;SDS011;3098;42.678;23.364;2023-07-28T04:53:19;10.90;;;6.80;;
6133;SDS011;3098;42.678;23.364;2023-07-28T04:55:46;19.10;;;7.03;;
6133;SDS011;3098;42.678;23.364;2023-07-28T04:58:14;9.32;;;6.10;;
6133;SDS011;3098;42.678;23.364;2023-07-28T05:00:41;8.55;;;5.53;;
6133;SDS011;3098;42.678;23.364;2023-07-28T05:03:08;7.85;;;4.70;;
6133;SDS011;3098;42.678;23.364;2023-07-28T05:05:35;13.70;;;4.65;;
6133;SDS011;3098;42.678;23.364;2023-07-28T05:08:01;7.55;;;4.78;;
6133;SDS011;3098;42.678;23.364;2023-07-28T05:10:30;10.18;;;4.68;;
6133;SDS011;3098;42.678;23.364;2023-07-28T05:12:57;8.93;;;4.13;;
6133;SDS011;3098;42.678;23.364;2023-07-28T05:15:25;28.02;;;11.57;;
6133;SDS011;3098;42.678;23.364;2023-07-28T05:17:51;8.05;;;4.60;;
6133;SDS011;3098;42.678;23.364;2023-07-28T05:20:18;6.78;;;4.65;;
6133;SDS011;3098;42.678;23.364;2023-07-28T05:22:45;12.38;;;5.13;;
6133;SDS011;3098;42.678;23.364;2023-07-28T05:25:13;7.45;;;4.28;;
6133;SDS011;3098;42.678;23.364;2023-07-28T05:27:42;8.40;;;4.53;;
6133;SDS011;3098;42.678;23.364;2023-07-28T05:30:09;12.15;;;4.40;;
6133;SDS011;3098;42.678;23.364;2023-07-28T05:32:37;11.55;;;5.40;;
6133;SDS011;3098;42.678;23.364;2023-07-28T05:35:04;8.15;;;5.30;;
6133;SDS011;3098;42.678;23.364;2023-07-28T05:37:32;6.80;;;5.10;;
6133;SDS011;3098;42.678;23.364;2023-07-28T05:39:59;12.25;;;6.03;;
6133;SDS011;3098;42.678;23.364;2023-07-28T05:42:26;10.25;;;5.78;;
6133;SDS011;3098;42.678;23.364;2023-07-28T05:44:55;12.02;;;6.35;;
6133;SDS011;3098;42.678;23.364;2023-07-28T05:47:22;15.95;;;6.78;;
6133;SDS011;3098;42.678;23.364;2023-07-28T05:49:49;12.27;;;6.50;;
6133;SDS011;3098;42.678;23.364;2023-07-28T05:52:16;8.82;;;6.32;;
6133;SDS011;3098;42.678;23.364;2023-07-28T05:54:43;15.02;;;6.30;;
6133;SDS011;3098;42.678;23.364;2023-07-28T05:57:10;11.88;;;5.93;;
6133;SDS011;3098;42.678;23.364;2023-07-28T05:59:37;8.80;;;5.40;;
6133;SDS011;3098;42.678;23.364;2023-07-28T06:02:06;7.53;;;4.55;;
6133;SDS011;3098;42.678;23.364;2023-07-28T06:04:34;11.73;;;4.32;;
6133;SDS011;3098;42.678;23.364;2023-07-28T06:07:01;11.27;;;6.13;;
6133;SDS011;3098;42.678;23.364;2023-07-28T06:09:28;8.13;;;5.50;;
6133;SDS011;3098;42.678;23.364;2023-07-28T06:11:55;7.85;;;4.30;;
6133;SDS011;3098;42.678;23.364;2023-07-28T06:14:23;4.82;;;3.97;;
6133;SDS011;3098;42.678;23.364;2023-07-28T06:16:50;5.80;;;3.80;;
6133;SDS011;3098;42.678;23.364;2023-07-28T06:19:19;6.90;;;4.20;;
6133;SDS011;3098;42.678;23.364;2023-07-28T06:21:49;8.82;;;3.95;;
6133;SDS011;3098;42.678;23.364;2023-07-28T06:24:17;8.25;;;3.13;;
6133;SDS011;3098;42.678;23.364;2023-07-28T06:26:44;6.63;;;3.15;;
6133;SDS011;3098;42.678;23.364;2023-07-28T06:29:11;4.78;;;3.53;;
6133;SDS011;3098;42.678;23.364;2023-07-28T06:31:38;7.32;;;3.85;;
6133;SDS011;3098;42.678;23.364;2023-07-28T06:34:06;6.18;;;3.40;;
6133;SDS011;3098;42.678;23.364;2023-07-28T06:36:34;7.07;;;3.75;;
6133;SDS011;3098;42.678;23.364;2023-07-28T06:39:01;9.43;;;3.53;;
6133;SDS011;3098;42.678;23.364;2023-07-28T06:41:29;19.27;;;8.32;;
6133;SDS011;3098;42.678;23.364;2023-07-28T06:43:57;6.25;;;4.38;;
6133;SDS011;3098;42.678;23.364;2023-07-28T06:46:25;6.13;;;3.90;;
6133;SDS011;3098;42.678;23.364;2023-07-28T06:48:54;4.40;;;3.72;;
6133;SDS011;3098;42.678;23.364;2023-07-28T06:51:21;9.30;;;4.13;;
6133;SDS011;3098;42.678;23.364;2023-07-28T06:53:52;17.27;;;4.55;;
6133;SDS011;3098;42.678;23.364;2023-07-28T06:56:19;10.15;;;3.88;;
6133;SDS011;3098;42.678;23.364;2023-07-28T06:58:46;9.57;;;4.35;;
6133;SDS011;3098;42.678;23.364;2023-07-28T07:01:13;6.70;;;3.78;;
6133;SDS011;3098;42.678;23.364;2023-07-28T07:03:42;6.00;;;3.78;;
6133;SDS011;3098;42.678;23.364;2023-07-28T07:06:08;7.05;;;4.22;;
6133;SDS011;3098;42.678;23.364;2023-07-28T07:08:36;5.10;;;3.30;;
6133;SDS011;3098;42.678;23.364;2023-07-28T07:11:05;6.55;;;3.60;;
6133;SDS011;3098;42.678;23.364;2023-07-28T07:13:32;5.00;;;3.58;;
6133;SDS011;3098;42.678;23.364;2023-07-28T07:16:00;8.15;;;3.28;;
6133;SDS011;3098;42.678;23.364;2023-07-28T07:18:27;7.20;;;3.53;;
6133;SDS011;3098;42.678;23.364;2023-07-28T07:20:55;7.68;;;3.90;;
6133;SDS011;3098;42.678;23.364;2023-07-28T07:23:22;20.98;;;12.13;;
6133;SDS011;3098;42.678;23.364;2023-07-28T07:25:49;4.97;;;3.15;;
6133;SDS011;3098;42.678;23.364;2023-07-28T07:28:18;6.10;;;3.45;;
6133;SDS011;3098;42.678;23.364;2023-07-28T07:30:45;6.20;;;3.33;;
6133;SDS011;3098;42.678;23.364;2023-07-28T07:33:12;6.63;;;3.05;;
6133;SDS011;3098;42.678;23.364;2023-07-28T07:35:39;3.88;;;3.15;;
6133;SDS011;3098;42.678;23.364;2023-07-28T07:38:06;5.18;;;3.30;;
6133;SDS011;3098;42.678;23.364;2023-07-28T07:40:34;8.35;;;3.67;;
6133;SDS011;3098;42.678;23.364;2023-07-28T07:43:01;5.78;;;3.15;;
6133;SDS011;3098;42.678;23.364;2023-07-28T07:45:30;8.85;;;3.30;;
6133;SDS011;3098;42.678;23.364;2023-07-28T07:47:57;4.65;;;3.08;;
6133;SDS011;3098;42.678;23.364;2023-07-28T07:50:25;5.28;;;3.22;;
6133;SDS011;3098;42.678;23.364;2023-07-28T07:52:52;9.48;;;2.97;;
6133;SDS011;3098;42.678;23.364;2023-07-28T07:55:18;7.95;;;3.00;;
6133;SDS011;3098;42.678;23.364;2023-07-28T07:57:46;4.47;;;3.00;;
6133;SDS011;3098;42.678;23.364;2023-07-28T08:00:13;4.20;;;2.97;;
6133;SDS011;3098;42.678;23.364;2023-07-28T08:02:42;4.55;;;2.88;;
6133;SDS011;3098;42.678;23.364;2023-07-28T08:05:09;5.55;;;2.85;;
6133;SDS011;3098;42.678;23.364;2023-07-28T08:07:39;4.00;;;3.03;;
6133;SDS011;3098;42.678;23.364;2023-07-28T08:10:06;6.90;;;3.05;;
6133;SDS011;3098;42.678;23.364;2023-07-28T08:12:34;3.33;;;2.75;;
6133;SDS011;3098;42.678;23.364;2023-07-28T08:15:01;6.10;;;3.00;;
6133;SDS011;3098;42.678;23.364;2023-07-28T08:17:28;3.13;;;2.83;;
6133;SDS011;3098;42.678;23.364;2023-07-28T08:19:57;4.25;;;2.92;;
6133;SDS011;3098;42.678;23.364;2023-07-28T08:22:24;4.25;;;3.15;;
6133;SDS011;3098;42.678;23.364;2023-07-28T08:24:52;3.10;;;2.63;;
6133;SDS011;3098;42.678;23.364;2023-07-28T08:27:19;3.75;;;2.72;;
6133;SDS011;3098;42.678;23.364;2023-07-28T08:29:46;6.30;;;2.95;;
6133;SDS011;3098;42.678;23.364;2023-07-28T08:32:14;3.60;;;2.88;;
6133;SDS011;3098;42.678;23.364;2023-07-28T08:34:42;3.33;;;2.97;;
6133;SDS011;3098;42.678;23.364;2023-07-28T08:37:14;4.57;;;3.13;;
6133;SDS011;3098;42.678;23.364;2023-07-28T08:39:41;8.38;;;3.47;;
6133;SDS011;3098;42.678;23.364;2023-07-28T08:42:09;12.13;;;7.68;;
6133;SDS011;3098;42.678;23.364;2023-07-28T08:44:36;19.95;;;12.80;;
6133;SDS011;3098;42.678;23.364;2023-07-28T08:47:04;6.65;;;2.72;;
6133;SDS011;3098;42.678;23.364;2023-07-28T08:49:31;16.30;;;3.80;;
6133;SDS011;3098;42.678;23.364;2023-07-28T08:52:01;4.13;;;2.70;;
6133;SDS011;3098;42.678;23.364;2023-07-28T08:54:31;3.85;;;2.80;;
6133;SDS011;3098;42.678;23.364;2023-07-28T08:56:59;5.10;;;3.25;;
6133;SDS011;3098;42.678;23.364;2023-07-28T08:59:26;6.43;;;3.03;;
6133;SDS011;3098;42.678;23.364;2023-07-28T09:01:55;5.10;;;2.78;;
6133;SDS011;3098;42.678;23.364;2023-07-28T09:04:24;3.15;;;2.70;;
6133;SDS011;3098;42.678;23.364;2023-07-28T09:06:51;7.25;;;3.03;;
6133;SDS011;3098;42.678;23.364;2023-07-28T09:09:20;3.42;;;2.95;;
6133;SDS011;3098;42.678;23.364;2023-07-28T09:14:50;3.63;;;2.85;;
6133;SDS011;3098;42.678;23.364;2023-07-28T09:17:22;4.22;;;2.75;;
6133;SDS011;3098;42.678;23.364;2023-07-28T09:19:50;4.68;;;3.00;;
6133;SDS011;3098;42.678;23.364;2023-07-28T09:22:18;4.90;;;3.03;;
6133;SDS011;3098;42.678;23.364;2023-07-28T09:24:45;3.53;;;2.70;;
6133;SDS011;3098;42.678;23.364;2023-07-28T09:27:21;5.72;;;2.70;;
6133;SDS011;3098;42.678;23.364;2023-07-28T09:29:50;2.97;;;2.63;;
6133;SDS011;3098;42.678;23.364;2023-07-28T09:32:25;3.53;;;2.95;;
6133;SDS011;3098;42.678;23.364;2023-07-28T09:35:05;4.15;;;3.05;;
6133;SDS011;3098;42.678;23.364;2023-07-28T09:37:36;3.90;;;2.75;;
6133;SDS011;3098;42.678;23.364;2023-07-28T09:40:07;7.88;;;3.10;;
6133;SDS011;3098;42.678;23.364;2023-07-28T09:42:38;3.15;;;2.55;;
6133;SDS011;3098;42.678;23.364;2023-07-28T09:45:05;4.95;;;3.10;;
6133;SDS011;3098;42.678;23.364;2023-07-28T09:47:35;6.20;;;2.95;;
6133;SDS011;3098;42.678;23.364;2023-07-28T09:50:03;6.20;;;3.08;;
6133;SDS011;3098;42.678;23.364;2023-07-28T09:52:33;7.70;;;2.90;;
6133;SDS011;3098;42.678;23.364;2023-07-28T09:55:04;4.15;;;2.97;;
6133;SDS011;3098;42.678;23.364;2023-07-28T09:57:38;4.00;;;2.85;;
6133;SDS011;3098;42.678;23.364;2023-07-28T10:00:08;5.93;;;3.03;;
6133;SDS011;3098;42.678;23.364;2023-07-28T10:02:38;3.55;;;2.60;;
6133;SDS011;3098;42.678;23.364;2023-07-28T10:05:07;6.00;;;3.17;;
6133;SDS011;3098;42.678;23.364;2023-07-28T10:07:36;8.85;;;2.90;;
6133;SDS011;3098;42.678;23.364;2023-07-28T10:10:06;11.88;;;3.50;;
6133;SDS011;3098;42.678;23.364;2023-07-28T10:12:41;6.55;;;3.35;;
6133;SDS011;3098;42.678;23.364;2023-07-28T10:15:14;4.95;;;2.83;;
6133;SDS011;3098;42.678;23.364;2023-07-28T10:17:44;5.15;;;2.60;;
6133;SDS011;3098;42.678;23.364;2023-07-28T10:23:07;4.35;;;2.70;;
6133;SDS011;3098;42.678;23.364;2023-07-28T10:25:37;4.00;;;2.70;;
6133;SDS011;3098;42.678;23.364;2023-07-28T10:28:07;4.57;;;2.80;;
6133;SDS011;3098;42.678;23.364;2023-07-28T10:30:53;8.38;;;3.30;;
6133;SDS011;3098;42.678;23.364;2023-07-28T10:33:30;3.53;;;2.85;;
6133;SDS011;3098;42.678;23.364;2023-07-28T10:35:58;4.65;;;3.10;;
6133;SDS011;3098;42.678;23.364;2023-07-28T10:38:37;11.40;;;3.42;;
6133;SDS011;3098;42.678;23.364;2023-07-28T10:41:06;4.72;;;3.17;;
6133;SDS011;3098;42.678;23.364;2023-07-28T10:43:36;4.15;;;3.00;;
6133;SDS011;3098;42.678;23.364;2023-07-28T10:46:04;4.38;;;3.00;;
6133;SDS011;3098;42.678;23.364;2023-07-28T10:48:34;8.70;;;3.10;;
6133;SDS011;3098;42.678;23.364;2023-07-28T10:51:02;5.63;;;3.30;;
6133;SDS011;3098;42.678;23.364;2023-07-28T10:53:31;5.75;;;3.03;;
6133;SDS011;3098;42.678;23.364;2023-07-28T10:56:03;4.55;;;2.83;;
6133;SDS011;3098;42.678;23.364;2023-07-28T10:58:33;3.20;;;2.90;;
6133;SDS011;3098;42.678;23.364;2023-07-28T11:01:04;5.18;;;2.83;;
6133;SDS011;3098;42.678;23.364;2023-07-28T11:03:32;12.27;;;3.20;;
6133;SDS011;3098;42.678;23.364;2023-07-28T11:05:59;6.55;;;3.60;;
6133;SDS011;3098;42.678;23.364;2023-07-28T11:08:27;7.57;;;3.40;;
6133;SDS011;3098;42.678;23.364;2023-07-28T11:10:54;3.70;;;3.00;;
6133;SDS011;3098;42.678;23.364;2023-07-28T11:13:23;4.38;;;3.28;;
6133;SDS011;3098;42.678;23.364;2023-07-28T11:15:51;4.38;;;3.20;;
6133;SDS011;3098;42.678;23.364;2023-07-28T11:18:20;10.48;;;3.67;;
6133;SDS011;3098;42.678;23.364;2023-07-28T11:20:48;5.18;;;3.08;;
6133;SDS011;3098;42.678;23.364;2023-07-28T11:23:15;3.78;;;2.53;;
6133;SDS011;3098;42.678;23.364;2023-07-28T11:25:43;6.25;;;3.60;;
6133;SDS011;3098;42.678;23.364;2023-07-28T11:28:12;6.68;;;3.25;;
6133;SDS011;3098;42.678;23.364;2023-07-28T11:30:39;4.93;;;3.58;;
6133;SDS011;3098;42.678;23.364;2023-07-28T11:33:08;6.07;;;3.65;;
6133;SDS011;3098;42.678;23.364;2023-07-28T11:35:39;3.85;;;3.17;;
6133;SDS011;3098;42.678;23.364;2023-07-28T11:38:10;5.63;;;3.30;;
6133;SDS011;3098;42.678;23.364;2023-07-28T11:40:38;7.28;;;3.20;;
6133;SDS011;3098;42.678;23.364;2023-07-28T11:43:06;2.60;;;2.40;;
6133;SDS011;3098;42.678;23.364;2023-07-28T11:45:35;9.05;;;2.92;;
6133;SDS011;3098;42.678;23.364;2023-07-28T11:48:03;4.32;;;3.00;;
6133;SDS011;3098;42.678;23.364;2023-07-28T11:50:34;4.72;;;3.42;;
6133;SDS011;3098;42.678;23.364;2023-07-28T11:53:06;3.92;;;2.67;;
6133;SDS011;3098;42.678;23.364;2023-07-28T11:55:36;3.70;;;2.60;;
6133;SDS011;3098;42.678;23.364;2023-07-28T11:58:05;4.03;;;3.10;;
6133;SDS011;3098;42.678;23.364;2023-07-28T12:00:37;3.42;;;2.78;;
6133;SDS011;3098;42.678;23.364;2023-07-28T12:03:08;5.65;;;3.75;;
6133;SDS011;3098;42.678;23.364;2023-07-28T12:05:37;2.90;;;2.60;;
6133;SDS011;3098;42.678;23.364;2023-07-28T12:08:15;3.90;;;2.65;;
6133;SDS011;3098;42.678;23.364;2023-07-28T12:10:59;6.55;;;3.28;;
6133;SDS011;3098;42.678;23.364;2023-07-28T12:13:27;7.82;;;3.00;;
6133;SDS011;3098;42.678;23.364;2023-07-28T12:15:55;4.50;;;3.42;;
6133;SDS011;3098;42.678;23.364;2023-07-28T12:18:27;3.55;;;3.10;;
6133;SDS011;3098;42.678;23.364;2023-07-28T12:20:56;3.05;;;2.75;;
6133;SDS011;3098;42.678;23.364;2023-07-28T12:23:28;4.18;;;3.00;;
6133;SDS011;3098;42.678;23.364;2023-07-28T12:26:00;6.53;;;2.40;;
6133;SDS011;3098;42.678;23.364;2023-07-28T12:28:28;4.68;;;2.60;;
6133;SDS011;3098;42.678;23.364;2023-07-28T12:30:55;5.55;;;3.15;;
6133;SDS011;3098;42.678;23.364;2023-07-28T12:33:24;3.78;;;2.97;;
6133;SDS011;3098;42.678;23.364;2023-07-28T12:35:51;3.72;;;2.90;;
6133;SDS011;3098;42.678;23.364;2023-07-28T12:38:19;7.72;;;2.55;;
6133;SDS011;3098;42.678;23.364;2023-07-28T12:40:49;6.65;;;2.90;;
6133;SDS011;3098;42.678;23.364;2023-07-28T12:43:17;3.97;;;3.10;;
6133;SDS011;3098;42.678;23.364;2023-07-28T12:45:45;3.28;;;2.85;;
6133;SDS011;3098;42.678;23.364;2023-07-28T12:48:12;2.72;;;2.40;;
6133;SDS011;3098;42.678;23.364;2023-07-28T12:50:40;4.07;;;3.13;;
6133;SDS011;3098;42.678;23.364;2023-07-28T12:53:08;3.15;;;2.80;;
6133;SDS011;3098;42.678;23.364;2023-07-28T12:55:35;4.22;;;2.97;;
6133;SDS011;3098;42.678;23.364;2023-07-28T12:58:04;4.45;;;3.10;;
6133;SDS011;3098;42.678;23.364;2023-07-28T13:00:32;6.63;;;2.53;;
6133;SDS011;3098;42.678;23.364;2023-07-28T13:02:58;4.97;;;2.42;;
6133;SDS011;3098;42.678;23.364;2023-07-28T13:05:26;3.30;;;2.60;;
6133;SDS011;3098;42.678;23.364;2023-07-28T13:07:53;6.53;;;2.67;;
6133;SDS011;3098;42.678;23.364;2023-07-28T13:10:21;3.17;;;2.53;;
6133;SDS011;3098;42.678;23.364;2023-07-28T13:12:48;5.53;;;2.70;;
6133;SDS011;3098;42.678;23.364;2023-07-28T13:15:17;2.72;;;2.42;;
6133;SDS011;3098;42.678;23.364;2023-07-28T13:17:44;3.03;;;2.55;;
6133;SDS011;3098;42.678;23.364;2023-07-28T13:20:11;2.70;;;2.45;;
6133;SDS011;3098;42.678;23.364;2023-07-28T13:22:39;3.83;;;2.88;;
6133;SDS011;3098;42.678;23.364;2023-07-28T13:25:07;4.60;;;2.95;;
6133;SDS011;3098;42.678;23.364;2023-07-28T13:27:34;3.05;;;2.55;;
6133;SDS011;3098;42.678;23.364;2023-07-28T13:30:03;2.47;;;2.17;;
6133;SDS011;3098;42.678;23.364;2023-07-28T13:32:32;3.22;;;2.60;;
6133;SDS011;3098;42.678;23.364;2023-07-28T13:34:59;3.25;;;2.60;;
6133;SDS011;3098;42.678;23.364;2023-07-28T13:37:26;5.28;;;2.60;;
6133;SDS011;3098;42.678;23.364;2023-07-28T13:39:54;2.70;;;2.30;;
6133;SDS011;3098;42.678;23.364;2023-07-28T13:42:21;4.60;;;3.00;;
6133;SDS011;3098;42.678;23.364;2023-07-28T13:44:48;4.70;;;3.63;;
6133;SDS011;3098;42.678;23.364;2023-07-28T13:47:16;6.40;;;3.97;;
6133;SDS011;3098;42.678;23.364;2023-07-28T13:49:44;4.85;;;3.30;;
6133;SDS011;3098;42.678;23.364;2023-07-28T13:52:12;7.18;;;2.90;;
6133;SDS011;3098;42.678;23.364;2023-07-28T13:54:39;6.03;;;2.70;;
6133;SDS011;3098;42.678;23.364;2023-07-28T13:57:07;7.40;;;2.70;;
6133;SDS011;3098;42.678;23.364;2023-07-28T13:59:34;3.53;;;2.60;;
6133;SDS011;3098;42.678;23.364;2023-07-28T14:02:01;2.83;;;2.35;;
6133;SDS011;3098;42.678;23.364;2023-07-28T14:04:28;3.67;;;2.60;;
6133;SDS011;3098;42.678;23.364;2023-07-28T14:06:57;6.95;;;3.10;;
6133;SDS011;3098;42.678;23.364;2023-07-28T14:09:24;5.55;;;2.67;;
6133;SDS011;3098;42.678;23.364;2023-07-28T14:11:51;4.55;;;2.63;;
6133;SDS011;3098;42.678;23.364;2023-07-28T14:14:18;3.33;;;2.72;;
6133;SDS011;3098;42.678;23.364;2023-07-28T14:16:46;3.95;;;3.25;;
6133;SDS011;3098;42.678;23.364;2023-07-28T14:19:13;2.85;;;2.55;;
6133;SDS011;3098;42.678;23.364;2023-07-28T14:21:41;3.03;;;2.60;;
6133;SDS011;3098;42.678;23.364;2023-07-28T14:24:09;6.00;;;5.10;;
6133;SDS011;3098;42.678;23.364;2023-07-28T14:26:37;6.15;;;3.97;;
6133;SDS011;3098;42.678;23.364;2023-07-28T14:29:04;3.67;;;3.17;;
6133;SDS011;3098;42.678;23.364;2023-07-28T14:31:31;5.50;;;4.07;;
6133;SDS011;3098;42.678;23.364;2023-07-28T14:33:58;4.38;;;3.70;;
6133;SDS011;3098;42.678;23.364;2023-07-28T14:36:26;6.30;;;3.70;;
6133;SDS011;3098;42.678;23.364;2023-07-28T14:38:53;4.03;;;2.78;;
6133;SDS011;3098;42.678;23.364;2023-07-28T14:41:22;4.25;;;3.03;;
6133;SDS011;3098;42.678;23.364;2023-07-28T14:43:50;4.15;;;3.20;;
6133;SDS011;3098;42.678;23.364;2023-07-28T14:46:17;2.92;;;2.53;;
6133;SDS011;3098;42.678;23.364;2023-07-28T14:48:47;3.13;;;2.70;;
6133;SDS011;3098;42.678;23.364;2023-07-28T14:51:15;8.30;;;2.97;;
6133;SDS011;3098;42.678;23.364;2023-07-28T14:53:43;3.70;;;2.78;;
6133;SDS011;3098;42.678;23.364;2023-07-28T14:56:10;5.97;;;3.15;;
6133;SDS011;3098;42.678;23.364;2023-07-28T14:58:39;3.53;;;3.10;;
6133;SDS011;3098;42.678;23.364;2023-07-28T15:01:07;3.83;;;2.80;;
6133;SDS011;3098;42.678;23.364;2023-07-28T15:03:35;5.22;;;2.83;;
6133;SDS011;3098;42.678;23.364;2023-07-28T15:06:03;4.75;;;3.03;;
6133;SDS011;3098;42.678;23.364;2023-07-28T15:08:30;3.33;;;2.60;;
6133;SDS011;3098;42.678;23.364;2023-07-28T15:10:58;2.97;;;2.60;;